Time;durP1;ratioP1;P1;durP2;ratioP2;P2;SDS_P1;SDS_P2;PMS_P1;PMS_P2;Temp;Humidity;BMP_temperature;BMP_pressure;BME280_temperature;BME280_humidity;BME280_pressure;Samples;Min_cycle;Max_cycle;Signal;HPM_P1;HPM_P2
2023/01/12 00:01:21;;;;;;;28.02;5.25;;;8.10;99.90;;;;;;4985171;28;20033;-73
2023/01/12 00:03:47;;;;;;;38.45;6.32;;;8.10;99.90;;;;;;4985295;28;20037;-73
2023/01/12 00:06:13;;;;;;;24.20;5.43;;;8.00;99.90;;;;;;5000534;28;20125;-76
2023/01/12 00:08:39;;;;;;;27.90;5.50;;;8.10;99.90;;;;;;5000764;28;20396;-72
2023/01/12 00:11:05;;;;;;;31.15;4.72;;;8.10;99.90;;;;;;5000333;28;20069;-72
2023/01/12 00:13:32;;;;;;;28.90;4.93;;;8.10;99.90;;;;;;4986841;28;20099;-74
2023/01/12 00:18:44;;;;;;;28.17;5.05;;;8.10;99.90;;;;;;5002222;28;20052;-69
2023/01/12 00:21:10;;;;;;;26.73;4.47;;;8.10;99.90;;;;;;4989069;28;20065;-73
2023/01/12 00:23:35;;;;;;;28.73;5.28;;;8.20;99.90;;;;;;4988647;28;20490;-73
2023/01/12 00:26:01;;;;;;;30.20;4.75;;;8.20;99.90;;;;;;5002460;28;20033;-72
2023/01/12 00:28:26;;;;;;;25.40;4.30;;;8.30;99.90;;;;;;4986147;28;20042;-72
2023/01/12 00:30:52;;;;;;;28.17;4.10;;;8.20;99.90;;;;;;4989303;28;20050;-73
2023/01/12 00:33:18;;;;;;;25.52;4.03;;;8.30;99.90;;;;;;4986687;28;20129;-72
2023/01/12 00:35:44;;;;;;;25.10;4.35;;;8.30;99.90;;;;;;4987148;28;20531;-75
2023/01/12 00:38:10;;;;;;;28.33;3.90;;;8.30;99.90;;;;;;4984926;28;20044;-73
2023/01/12 00:40:36;;;;;;;30.33;4.20;;;8.30;99.90;;;;;;4989184;28;20044;-74
2023/01/12 00:45:50;;;;;;;30.25;4.55;;;8.30;99.90;;;;;;4991012;28;20053;-72
2023/01/12 00:48:16;;;;;;;25.20;3.88;;;8.30;99.90;;;;;;4985487;28;20057;-73
2023/01/12 00:50:41;;;;;;;25.35;3.95;;;8.30;99.90;;;;;;4989984;28;20057;-72
2023/01/12 00:53:07;;;;;;;26.50;4.30;;;8.30;99.90;;;;;;4989649;28;20049;-72
2023/01/12 00:55:32;;;;;;;30.45;3.45;;;8.30;99.90;;;;;;4991454;28;20042;-72
2023/01/12 00:57:58;;;;;;;27.63;4.32;;;8.30;99.90;;;;;;4985525;28;20139;-73
2023/01/12 01:00:24;;;;;;;28.92;4.88;;;8.30;99.90;;;;;;4983133;28;20059;-75
2023/01/12 01:02:49;;;;;;;31.58;4.78;;;8.30;99.90;;;;;;4981287;28;20092;-77
2023/01/12 01:05:16;;;;;;;34.72;4.63;;;8.30;99.90;;;;;;4988318;28;20033;-72
2023/01/12 01:07:42;;;;;;;32.13;4.50;;;8.30;99.90;;;;;;4984912;28;20057;-72
2023/01/12 01:10:09;;;;;;;31.95;4.72;;;8.30;99.90;;;;;;4985466;28;20041;-74
2023/01/12 01:12:35;;;;;;;26.67;4.53;;;8.30;99.90;;;;;;4987041;28;20052;-73
2023/01/12 01:15:00;;;;;;;29.48;4.40;;;8.30;99.90;;;;;;4984142;28;20046;-71
2023/01/12 01:17:27;;;;;;;25.13;5.75;;;8.30;99.90;;;;;;4988217;28;20040;-74
2023/01/12 01:19:53;;;;;;;28.67;4.88;;;8.40;99.90;;;;;;5003966;28;20080;-76
2023/01/12 01:22:19;;;;;;;31.17;5.25;;;8.30;99.90;;;;;;4985916;28;20128;-76
2023/01/12 01:24:46;;;;;;;35.22;5.65;;;8.40;99.90;;;;;;5003169;28;20041;-72
2023/01/12 01:27:11;;;;;;;27.92;4.80;;;8.30;99.90;;;;;;5000607;28;20176;-72
2023/01/12 01:29:37;;;;;;;25.50;5.00;;;8.30;99.90;;;;;;5000911;28;20038;-71
2023/01/12 01:32:03;;;;;;;30.92;6.10;;;8.30;99.90;;;;;;4984915;28;20053;-73
2023/01/12 01:34:28;;;;;;;32.80;5.55;;;8.30;99.90;;;;;;4986276;28;20065;-72
2023/01/12 01:36:54;;;;;;;31.15;5.20;;;8.30;99.90;;;;;;4988780;28;20607;-74
2023/01/12 01:39:20;;;;;;;28.83;5.60;;;8.30;99.90;;;;;;5001693;28;20511;-72
2023/01/12 01:41:46;;;;;;;28.77;4.72;;;8.40;99.90;;;;;;4983376;28;20410;-74
2023/01/12 01:44:30;;;;;;;24.58;5.07;;;8.30;99.90;;;;;;4982193;28;20084;-74
2023/01/12 01:47:23;;;;;;;29.05;5.45;;;8.40;99.90;;;;;;4984419;28;20127;-71
2023/01/12 01:49:52;;;;;;;29.50;4.90;;;8.40;99.90;;;;;;4987073;28;20053;-74
2023/01/12 01:52:37;;;;;;;28.20;4.45;;;8.30;99.90;;;;;;4987084;28;20046;-76
2023/01/12 01:55:11;;;;;;;31.20;4.88;;;8.40;99.90;;;;;;4990349;28;20733;-75
2023/01/12 01:57:48;;;;;;;36.75;5.72;;;8.40;99.90;;;;;;4985490;28;20089;-73
2023/01/12 02:00:14;;;;;;;36.97;5.97;;;8.40;99.90;;;;;;5005004;28;20042;-77
2023/01/12 02:02:42;;;;;;;36.42;6.30;;;8.40;99.90;;;;;;5000776;28;20065;-75
2023/01/12 02:05:10;;;;;;;33.90;6.15;;;8.40;99.90;;;;;;4987854;28;20095;-75
2023/01/12 02:07:36;;;;;;;44.47;6.32;;;8.40;99.90;;;;;;4986764;28;20455;-72
2023/01/12 02:10:03;;;;;;;34.38;5.18;;;8.40;99.90;;;;;;4987372;28;20038;-76
2023/01/12 02:18:28;;;;;;;38.42;4.65;;;8.50;99.90;;;;;;4998982;28;20052;-73
2023/01/12 02:21:33;;;;;;;33.58;5.43;;;8.40;99.90;;;;;;4969064;28;20225;-75
2023/01/12 02:24:43;;;;;;;33.10;4.72;;;8.50;99.90;;;;;;4985255;28;20037;-77
2023/01/12 02:27:50;;;;;;;42.13;5.20;;;8.40;99.90;;;;;;4972780;28;20045;-73
2023/01/12 02:30:50;;;;;;;32.83;5.13;;;8.50;99.90;;;;;;4985023;28;20642;-73
2023/01/12 02:33:31;;;;;;;35.97;5.05;;;8.50;99.90;;;;;;4965439;28;20179;-73
2023/01/12 02:36:03;;;;;;;38.38;5.80;;;8.60;99.90;;;;;;4984179;28;20041;-72
2023/01/12 02:38:53;;;;;;;31.55;5.35;;;8.50;99.90;;;;;;4984561;28;20037;-74
2023/01/12 02:42:39;;;;;;;29.27;5.28;;;8.70;99.90;;;;;;4983038;28;20045;-76
2023/01/12 02:44:08;;;;;;;25.95;5.25;;;8.60;99.90;;;;;;4982449;28;20055;-71
2023/01/12 02:46:35;;;;;;;28.73;5.10;;;8.60;99.90;;;;;;5003493;28;20034;-71
2023/01/12 02:49:08;;;;;;;34.08;5.72;;;8.70;99.90;;;;;;4979722;28;20045;-74
2023/01/12 02:52:04;;;;;;;30.13;5.20;;;8.70;99.90;;;;;;4998012;28;20152;-72
2023/01/12 02:54:33;;;;;;;32.80;5.10;;;8.60;99.90;;;;;;4991572;28;20061;-74
2023/01/12 02:57:04;;;;;;;29.17;4.63;;;8.70;99.90;;;;;;4985273;28;20034;-75
2023/01/12 02:59:37;;;;;;;32.63;4.88;;;8.60;99.90;;;;;;4983544;28;20046;-75
2023/01/12 03:02:21;;;;;;;29.52;5.03;;;8.70;99.90;;;;;;4981315;28;20141;-77
2023/01/12 03:04:47;;;;;;;28.83;5.10;;;8.70;99.90;;;;;;4985026;28;20057;-73
2023/01/12 03:07:31;;;;;;;38.25;4.55;;;8.60;99.90;;;;;;4984747;28;20041;-75
2023/01/12 03:10:23;;;;;;;24.85;4.70;;;8.60;99.90;;;;;;4986751;28;20044;-77
2023/01/12 03:12:50;;;;;;;32.28;5.10;;;8.70;99.90;;;;;;4961235;28;20937;-71
2023/01/12 03:15:18;;;;;;;20.83;4.72;;;8.60;99.90;;;;;;4984478;28;20038;-70
2023/01/12 03:18:13;;;;;;;26.75;5.05;;;8.60;99.90;;;;;;4985451;28;20096;-73
2023/01/12 03:20:46;;;;;;;16.85;4.15;;;8.70;99.90;;;;;;4977884;28;20049;-75
2023/01/12 03:23:17;;;;;;;25.33;4.20;;;8.70;99.90;;;;;;4987263;28;20042;-72
2023/01/12 03:25:44;;;;;;;20.42;4.40;;;8.70;99.90;;;;;;4989240;28;20064;-71
2023/01/12 03:28:13;;;;;;;15.25;3.47;;;8.70;99.90;;;;;;4985269;28;20455;-73
2023/01/12 03:30:54;;;;;;;21.65;3.60;;;8.70;99.90;;;;;;4984478;28;20053;-74
2023/01/12 03:33:21;;;;;;;18.33;3.53;;;8.70;99.90;;;;;;4985750;28;20183;-76
2023/01/12 03:36:04;;;;;;;17.60;3.33;;;8.70;99.90;;;;;;4985344;28;21844;-73
2023/01/12 03:38:50;;;;;;;19.65;3.35;;;8.70;99.90;;;;;;4983757;28;20076;-74
2023/01/12 03:41:39;;;;;;;18.67;3.70;;;8.70;99.90;;;;;;5001760;28;20136;-73
2023/01/12 03:44:09;;;;;;;19.10;3.97;;;8.60;99.90;;;;;;5002249;28;20415;-72
2023/01/12 03:46:53;;;;;;;20.42;4.35;;;8.70;99.90;;;;;;4981882;28;20054;-71
2023/01/12 03:49:24;;;;;;;16.13;3.80;;;8.70;99.90;;;;;;4997793;28;20415;-73
2023/01/12 03:51:53;;;;;;;16.35;3.90;;;8.70;99.90;;;;;;4999820;28;20041;-76
2023/01/12 03:54:20;;;;;;;17.02;3.55;;;8.70;99.90;;;;;;5001823;28;20046;-75
2023/01/12 03:56:47;;;;;;;17.80;4.00;;;8.80;99.90;;;;;;4987145;28;20100;-73
2023/01/12 03:59:13;;;;;;;15.40;3.25;;;8.80;99.90;;;;;;5003648;28;20038;-75
2023/01/12 04:01:40;;;;;;;15.95;3.63;;;8.70;99.90;;;;;;4983679;28;20433;-72
2023/01/12 04:04:06;;;;;;;15.20;3.33;;;8.80;99.90;;;;;;4988299;28;20163;-70
2023/01/12 04:06:31;;;;;;;15.63;4.15;;;8.80;99.90;;;;;;4986091;28;20046;-72
2023/01/12 04:08:57;;;;;;;12.00;3.10;;;8.70;99.90;;;;;;4989908;28;20033;-70
2023/01/12 04:14:07;;;;;;;13.80;3.35;;;8.80;99.90;;;;;;4988621;28;20073;-74
2023/01/12 04:16:32;;;;;;;13.15;3.47;;;8.70;99.90;;;;;;4990571;28;20050;-74
2023/01/12 04:18:58;;;;;;;12.50;2.90;;;8.70;99.90;;;;;;4989636;28;20075;-72
2023/01/12 04:24:07;;;;;;;15.40;2.78;;;8.70;99.90;;;;;;4986588;28;20061;-73
2023/01/12 04:26:33;;;;;;;10.80;3.00;;;8.70;99.90;;;;;;4986432;28;20041;-72
2023/01/12 04:28:59;;;;;;;18.90;3.47;;;8.80;99.90;;;;;;4987335;28;20119;-70
2023/01/12 04:31:24;;;;;;;13.90;3.20;;;8.70;99.90;;;;;;4985946;28;20042;-72
2023/01/12 04:33:50;;;;;;;11.82;2.63;;;8.80;99.90;;;;;;4991377;28;20132;-71
2023/01/12 04:36:15;;;;;;;11.57;2.83;;;8.80;99.90;;;;;;4988819;28;20053;-73
2023/01/12 04:38:41;;;;;;;9.93;2.55;;;8.70;99.90;;;;;;5002962;28;20038;-70
2023/01/12 04:41:07;;;;;;;10.38;2.78;;;8.80;99.90;;;;;;4990644;28;20038;-74
2023/01/12 04:43:34;;;;;;;13.18;2.83;;;8.70;99.90;;;;;;4989807;28;20080;-72
2023/01/12 04:46:08;;;;;;;10.05;2.90;;;8.70;99.90;;;;;;4990399;28;22254;-68
2023/01/12 04:48:33;;;;;;;12.10;2.95;;;8.70;99.90;;;;;;5000835;28;20042;-72
2023/01/12 04:51:00;;;;;;;8.63;2.40;;;8.60;99.90;;;;;;4986664;28;20050;-68
2023/01/12 04:53:26;;;;;;;9.88;2.38;;;8.70;99.90;;;;;;4991332;28;20674;-70
2023/01/12 04:55:51;;;;;;;10.48;2.85;;;8.70;99.90;;;;;;4991226;28;20037;-73
2023/01/12 04:58:17;;;;;;;8.95;2.20;;;8.60;99.90;;;;;;5002632;28;20740;-68
2023/01/12 05:00:43;;;;;;;8.73;2.40;;;8.70;99.90;;;;;;4987378;28;20038;-70
2023/01/12 05:03:13;;;;;;;11.18;2.38;;;8.60;99.90;;;;;;4988372;28;20265;-67
2023/01/12 05:05:38;;;;;;;10.30;2.50;;;8.60;99.90;;;;;;5007220;28;20461;-68
2023/01/12 05:10:57;;;;;;;7.28;2.40;;;8.50;99.90;;;;;;4990338;28;20200;-70
2023/01/12 05:13:26;;;;;;;9.00;2.22;;;8.50;99.90;;;;;;5000102;28;20084;-67
2023/01/12 05:15:51;;;;;;;9.38;2.55;;;8.50;99.90;;;;;;4989131;28;20034;-69
2023/01/12 05:18:17;;;;;;;10.20;2.25;;;8.50;99.90;;;;;;4982159;28;20080;-70
2023/01/12 05:20:43;;;;;;;7.65;2.20;;;8.50;99.90;;;;;;5001999;28;20048;-68
2023/01/12 05:23:08;;;;;;;11.88;2.70;;;8.40;99.90;;;;;;4982131;28;20646;-69
2023/01/12 05:25:34;;;;;;;9.63;2.30;;;8.50;99.90;;;;;;4967450;28;20522;-67
2023/01/12 05:27:59;;;;;;;7.50;2.20;;;8.40;99.90;;;;;;4984980;28;20056;-70
2023/01/12 05:30:26;;;;;;;9.27;2.15;;;8.40;99.90;;;;;;4986524;28;20160;-68
2023/01/12 05:32:52;;;;;;;7.65;2.25;;;8.40;99.90;;;;;;4988802;28;20145;-69
2023/01/12 05:35:18;;;;;;;8.15;2.42;;;8.40;99.90;;;;;;4985108;28;20040;-71
2023/01/12 05:37:44;;;;;;;7.18;2.53;;;8.40;99.90;;;;;;5001762;28;20100;-69
2023/01/12 05:40:10;;;;;;;9.15;2.20;;;8.40;99.90;;;;;;4987307;28;20030;-67
2023/01/12 05:45:20;;;;;;;10.35;2.10;;;8.50;99.90;;;;;;4985075;28;20500;-72
2023/01/12 05:47:46;;;;;;;6.20;1.85;;;8.50;99.90;;;;;;4985213;28;20786;-75
2023/01/12 05:50:11;;;;;;;4.90;1.80;;;8.50;99.90;;;;;;4998397;28;20468;-70
2023/01/12 05:52:37;;;;;;;7.38;2.00;;;8.50;99.90;;;;;;4986232;28;20038;-71
2023/01/12 05:55:04;;;;;;;8.65;1.92;;;8.50;99.90;;;;;;4984551;28;20084;-71
2023/01/12 05:57:30;;;;;;;8.70;2.00;;;8.60;99.90;;;;;;4986404;28;20034;-70
2023/01/12 05:59:56;;;;;;;9.38;1.90;;;8.50;99.90;;;;;;4984670;28;20052;-70
2023/01/12 06:02:21;;;;;;;7.45;2.25;;;8.60;99.90;;;;;;4982965;28;20033;-72
2023/01/12 06:04:47;;;;;;;9.60;2.03;;;8.70;99.90;;;;;;4988537;28;20042;-69
2023/01/12 06:07:14;;;;;;;6.03;1.85;;;8.60;99.90;;;;;;4982227;28;20093;-72
2023/01/12 06:09:40;;;;;;;7.32;1.85;;;8.60;99.90;;;;;;4988279;28;20053;-70
2023/01/12 06:14:51;;;;;;;7.03;1.95;;;8.70;99.90;;;;;;4984295;28;20165;-71
2023/01/12 06:17:17;;;;;;;8.20;1.88;;;8.70;99.90;;;;;;4979994;28;20124;-70
2023/01/12 06:19:43;;;;;;;8.38;2.15;;;8.70;99.90;;;;;;4984075;28;20062;-70
2023/01/12 06:22:09;;;;;;;6.35;2.08;;;8.70;99.90;;;;;;4986581;28;20133;-73
2023/01/12 06:24:34;;;;;;;6.78;2.15;;;8.90;99.90;;;;;;4984684;28;20140;-69
2023/01/12 06:27:00;;;;;;;4.95;2.13;;;8.90;99.90;;;;;;4984648;28;20547;-73
2023/01/12 06:29:26;;;;;;;7.25;2.00;;;8.90;99.90;;;;;;4987652;28;20034;-75
2023/01/12 06:31:51;;;;;;;7.35;1.98;;;8.80;99.90;;;;;;4984432;28;20034;-72
2023/01/12 06:34:17;;;;;;;8.00;2.30;;;8.90;99.90;;;;;;4985798;28;20127;-76
2023/01/12 06:36:43;;;;;;;6.07;2.00;;;8.90;99.90;;;;;;5003775;28;20049;-72
2023/01/12 06:39:11;;;;;;;6.18;2.20;;;8.90;99.90;;;;;;4983962;28;20403;-72
2023/01/12 06:44:20;;;;;;;6.10;2.00;;;9.10;99.90;;;;;;4988055;28;20080;-74
2023/01/12 06:46:46;;;;;;;6.07;2.45;;;9.20;99.90;;;;;;4985077;28;20061;-75
2023/01/12 06:49:12;;;;;;;6.07;2.30;;;9.00;99.90;;;;;;4983176;28;20045;-73
2023/01/12 06:51:38;;;;;;;4.53;2.20;;;9.10;99.90;;;;;;4988696;28;20077;-71
2023/01/12 06:54:04;;;;;;;5.50;2.45;;;9.10;99.90;;;;;;4986428;28;20042;-70
2023/01/12 06:56:29;;;;;;;5.28;2.47;;;9.20;99.90;;;;;;4988147;28;20038;-71
2023/01/12 06:58:55;;;;;;;5.20;2.38;;;9.20;99.90;;;;;;4989788;28;20041;-73
2023/01/12 07:01:21;;;;;;;6.63;2.30;;;9.20;99.90;;;;;;4988255;28;20052;-74
2023/01/12 07:03:46;;;;;;;3.53;2.15;;;9.20;99.90;;;;;;4989107;28;20080;-74
2023/01/12 07:06:13;;;;;;;3.78;2.25;;;9.10;99.90;;;;;;4988457;28;20496;-71
2023/01/12 07:08:39;;;;;;;5.68;2.30;;;9.10;99.90;;;;;;4984463;28;20428;-75
2023/01/12 07:11:11;;;;;;;4.78;2.13;;;9.10;99.90;;;;;;4977801;28;20069;-76
2023/01/12 07:13:36;;;;;;;6.93;2.53;;;9.20;99.90;;;;;;5003403;28;20129;-73
2023/01/12 07:16:02;;;;;;;5.00;2.47;;;9.20;99.90;;;;;;4988721;28;20439;-73
2023/01/12 07:18:29;;;;;;;5.40;2.50;;;9.30;99.90;;;;;;4984257;28;20131;-75
2023/01/12 07:20:55;;;;;;;6.00;2.85;;;9.20;99.90;;;;;;4986970;28;20045;-74
2023/01/12 07:23:21;;;;;;;4.57;2.83;;;9.20;99.90;;;;;;4982202;28;20065;-75
2023/01/12 07:25:46;;;;;;;5.13;2.72;;;9.30;99.90;;;;;;4986254;28;20535;-68
2023/01/12 07:28:12;;;;;;;7.70;2.55;;;9.20;99.90;;;;;;4984382;28;20045;-72
2023/01/12 07:30:38;;;;;;;4.57;2.60;;;9.20;99.90;;;;;;4988914;28;20400;-71
2023/01/12 07:33:12;;;;;;;4.60;2.80;;;9.20;99.90;;;;;;4990025;28;20537;-76
2023/01/12 07:35:38;;;;;;;7.55;3.45;;;9.30;99.90;;;;;;4984191;28;20469;-73
2023/01/12 07:38:05;;;;;;;7.05;3.60;;;9.20;99.90;;;;;;5005882;28;20046;-75
2023/01/12 07:40:30;;;;;;;9.68;3.58;;;9.20;99.90;;;;;;4992409;28;20385;-75
2023/01/12 07:43:07;;;;;;;8.20;3.17;;;9.30;99.90;;;;;;4992466;28;20045;-73
2023/01/12 07:45:33;;;;;;;10.20;3.25;;;9.40;99.90;;;;;;5007894;28;20115;-74
2023/01/12 07:47:59;;;;;;;6.32;3.15;;;9.40;99.90;;;;;;5005511;28;20045;-75
2023/01/12 07:50:27;;;;;;;9.88;3.65;;;9.30;99.90;;;;;;4993306;28;20381;-72
2023/01/12 07:52:53;;;;;;;6.80;3.38;;;9.40;99.90;;;;;;4990855;28;20147;-78
2023/01/12 07:55:19;;;;;;;8.43;4.00;;;9.30;99.90;;;;;;4987916;28;20033;-74
2023/01/12 07:57:55;;;;;;;13.43;4.80;;;9.30;99.90;;;;;;4992104;28;20142;-75
2023/01/12 08:00:22;;;;;;;8.55;4.20;;;9.50;99.90;;;;;;4987603;28;20077;-81
2023/01/12 08:02:49;;;;;;;17.00;4.50;;;9.50;99.90;;;;;;4993846;28;20046;-70
2023/01/12 08:05:15;;;;;;;14.82;4.53;;;9.50;99.90;;;;;;4993135;28;20044;-75
2023/01/12 08:07:40;;;;;;;12.02;4.57;;;9.40;99.90;;;;;;4989781;28;20042;-75
2023/01/12 08:10:06;;;;;;;19.13;5.47;;;9.40;99.90;;;;;;4989210;28;20045;-71
2023/01/12 08:12:33;;;;;;;13.45;4.25;;;9.60;99.90;;;;;;5006678;28;20172;-73
2023/01/12 08:14:59;;;;;;;21.48;5.00;;;9.70;99.90;;;;;;4996039;28;20041;-77
2023/01/12 08:17:25;;;;;;;20.17;5.07;;;9.60;99.90;;;;;;4994803;28;20037;-76
2023/01/12 08:20:07;;;;;;;22.70;5.10;;;9.60;99.90;;;;;;5012390;28;20037;-71
2023/01/12 08:22:40;;;;;;;24.55;4.85;;;9.70;99.90;;;;;;4991202;28;20085;-76
2023/01/12 08:25:11;;;;;;;26.10;4.85;;;9.90;99.90;;;;;;4992497;28;20054;-75
2023/01/12 08:27:39;;;;;;;31.42;6.35;;;9.90;99.90;;;;;;4988946;28;20095;-75
2023/01/12 08:30:07;;;;;;;47.20;5.97;;;10.00;99.90;;;;;;4993786;28;20119;-76
2023/01/12 08:32:35;;;;;;;43.90;6.10;;;10.20;99.90;;;;;;4994455;28;20072;-74
2023/01/12 08:35:02;;;;;;;43.97;5.68;;;10.10;99.90;;;;;;5009651;28;20052;-77
2023/01/12 08:37:29;;;;;;;34.00;4.63;;;10.30;99.90;;;;;;4993103;28;20088;-76
2023/01/12 08:39:55;;;;;;;51.33;6.13;;;10.30;99.90;;;;;;4997692;28;20133;-74
2023/01/12 08:42:24;;;;;;;47.70;5.75;;;10.50;99.90;;;;;;4995084;28;20040;-74
2023/01/12 08:44:49;;;;;;;49.92;6.47;;;10.40;99.90;;;;;;4990398;28;20390;-76
2023/01/12 08:47:18;;;;;;;44.50;6.05;;;10.40;99.90;;;;;;4994561;28;20042;-74
2023/01/12 08:49:45;;;;;;;42.75;5.60;;;10.50;99.90;;;;;;4994815;28;20119;-75
2023/01/12 08:52:11;;;;;;;45.38;6.47;;;10.50;99.90;;;;;;4993495;28;20038;-76
2023/01/12 08:54:38;;;;;;;45.33;6.60;;;10.60;99.90;;;;;;4992280;28;20128;-75
2023/01/12 08:57:03;;;;;;;43.08;5.75;;;10.60;99.90;;;;;;4990803;28;20129;-71
2023/01/12 08:59:29;;;;;;;42.53;5.85;;;10.60;99.90;;;;;;4991664;28;20046;-74
2023/01/12 09:01:55;;;;;;;41.83;5.25;;;10.80;99.90;;;;;;4994822;28;20042;-74
2023/01/12 09:04:21;;;;;;;41.17;4.97;;;10.70;99.90;;;;;;5010112;28;20038;-71
2023/01/12 09:06:47;;;;;;;32.30;4.07;;;10.80;99.90;;;;;;4996996;28;20570;-73
2023/01/12 09:09:16;;;;;;;37.47;4.65;;;10.80;99.90;;;;;;4991787;28;20046;-74
2023/01/12 09:11:43;;;;;;;21.70;4.00;;;10.90;99.90;;;;;;4994710;28;20052;-77
2023/01/12 09:14:11;;;;;;;41.88;4.63;;;10.90;99.90;;;;;;4991208;28;20056;-75
2023/01/12 09:16:36;;;;;;;30.75;4.50;;;10.80;99.90;;;;;;5006753;28;20042;-75
2023/01/12 09:19:02;;;;;;;34.25;4.53;;;10.80;99.90;;;;;;4993023;28;20104;-74
2023/01/12 09:21:29;;;;;;;38.45;4.55;;;10.80;99.90;;;;;;5007265;28;20060;-72
2023/01/12 09:23:56;;;;;;;34.08;4.07;;;10.80;99.90;;;;;;4993871;28;20444;-72
2023/01/12 09:26:32;;;;;;;31.63;4.30;;;10.80;99.90;;;;;;4991413;28;20092;-72
2023/01/12 09:28:59;;;;;;;36.95;4.70;;;10.90;99.90;;;;;;4993408;28;20109;-76
2023/01/12 09:31:26;;;;;;;29.92;4.55;;;11.10;99.90;;;;;;4991721;28;20489;-72
2023/01/12 09:33:53;;;;;;;27.58;4.68;;;11.00;99.90;;;;;;4990816;28;20045;-76
2023/01/12 09:36:31;;;;;;;37.58;5.20;;;11.10;99.90;;;;;;4993783;28;20064;-74
2023/01/12 09:38:57;;;;;;;30.70;4.72;;;11.00;99.90;;;;;;4990926;28;20034;-71
2023/01/12 09:47:38;;;;;;;35.58;5.40;;;11.20;99.90;;;;;;4993493;28;20048;-73
2023/01/12 09:50:12;;;;;;;32.17;5.60;;;11.30;99.90;;;;;;4984178;28;20093;-75
2023/01/12 09:53:05;;;;;;;28.48;4.15;;;11.30;99.90;;;;;;5004429;28;20046;-75
2023/01/12 09:56:01;;;;;;;34.53;5.97;;;11.20;99.90;;;;;;4990159;28;20044;-69
2023/01/12 09:58:36;;;;;;;38.40;4.80;;;11.40;99.90;;;;;;4920089;28;20074;-67
2023/01/12 10:01:11;;;;;;;34.60;4.68;;;11.40;99.90;;;;;;5005610;28;20121;-63
2023/01/12 10:03:38;;;;;;;33.78;4.32;;;11.30;99.90;;;;;;5004430;28;20042;-62
2023/01/12 10:06:05;;;;;;;39.42;5.00;;;11.20;99.90;;;;;;4991800;28;20037;-66
2023/01/12 10:08:33;;;;;;;25.20;3.83;;;11.20;99.90;;;;;;4987147;28;20125;-63
2023/01/12 10:11:30;;;;;;;36.00;5.05;;;11.20;99.90;;;;;;5014780;28;20396;-67
2023/01/12 10:14:05;;;;;;;33.22;4.50;;;11.20;99.90;;;;;;4993313;28;20404;-68
2023/01/12 10:16:45;;;;;;;30.80;4.05;;;11.30;99.90;;;;;;4999204;28;20041;-72
2023/01/12 10:19:24;;;;;;;24.08;4.47;;;11.20;99.90;;;;;;4986507;28;20073;-70
2023/01/12 10:21:52;;;;;;;33.35;5.35;;;11.20;99.90;;;;;;5004552;28;20126;-69
2023/01/12 10:24:20;;;;;;;33.10;3.85;;;11.30;99.90;;;;;;4984671;28;20046;-70
2023/01/12 10:26:50;;;;;;;32.03;4.88;;;11.20;99.90;;;;;;5010099;28;20400;-69
2023/01/12 10:29:15;;;;;;;37.45;5.13;;;11.20;99.90;;;;;;4990428;28;20172;-71
2023/01/12 10:31:41;;;;;;;33.53;4.70;;;11.00;99.90;;;;;;4991437;28;20604;-72
2023/01/12 10:34:10;;;;;;;30.10;5.00;;;11.10;99.90;;;;;;4989674;28;20472;-69
2023/01/12 10:36:42;;;;;;;29.63;4.35;;;11.00;99.90;;;;;;5004773;28;20373;-69
2023/01/12 10:39:29;;;;;;;26.83;4.45;;;10.90;99.90;;;;;;5006836;28;20073;-68
2023/01/12 10:45:22;;;;;;;36.38;4.97;;;10.70;99.90;;;;;;4992775;28;20200;-72
2023/01/12 10:47:49;;;;;;;38.65;5.13;;;10.70;99.90;;;;;;4990912;28;20080;-68
2023/01/12 10:50:35;;;;;;;33.13;4.35;;;10.80;99.90;;;;;;4990201;28;20484;-69
2023/01/12 10:53:04;;;;;;;37.85;5.82;;;10.80;99.90;;;;;;4999863;28;20053;-70
2023/01/12 10:55:38;;;;;;;32.60;5.43;;;10.90;99.90;;;;;;4991559;28;20069;-66
2023/01/12 10:58:15;;;;;;;39.38;5.25;;;10.90;99.90;;;;;;5006653;28;20084;-66
2023/01/12 11:00:48;;;;;;;35.65;5.40;;;11.00;99.90;;;;;;4986070;28;20336;-71
2023/01/12 11:03:36;;;;;;;29.58;4.32;;;10.90;99.90;;;;;;5008166;28;20073;-70
2023/01/12 11:06:26;;;;;;;34.33;4.85;;;11.00;99.90;;;;;;4983096;28;20038;-71
2023/01/12 11:08:53;;;;;;;40.55;4.35;;;11.00;99.90;;;;;;5001513;28;20126;-71
2023/01/12 11:11:45;;;;;;;26.88;4.22;;;11.10;99.90;;;;;;4998336;28;20050;-71
2023/01/12 11:14:24;;;;;;;54.07;5.07;;;11.20;99.90;;;;;;4987609;28;20099;-70
2023/01/12 11:16:50;;;;;;;40.65;4.85;;;11.20;99.90;;;;;;4975681;28;20518;-72
2023/01/12 11:19:33;;;;;;;33.22;4.10;;;11.20;99.90;;;;;;4991039;28;20064;-71
2023/01/12 11:22:10;;;;;;;29.33;4.53;;;11.20;99.90;;;;;;5008715;28;20069;-67
2023/01/12 11:24:40;;;;;;;32.22;4.43;;;11.40;99.90;;;;;;4990053;28;20425;-68
2023/01/12 11:27:11;;;;;;;30.27;5.22;;;11.50;99.90;;;;;;5003048;28;20412;-69
2023/01/12 11:29:49;;;;;;;25.13;4.07;;;11.50;99.90;;;;;;4988022;28;20066;-75
2023/01/12 11:32:23;;;;;;;33.40;4.25;;;11.60;99.90;;;;;;4973337;28;20453;-68
2023/01/12 11:35:04;;;;;;;26.35;4.15;;;11.60;99.90;;;;;;4989340;28;20045;-67
2023/01/12 11:37:33;;;;;;;28.52;4.60;;;11.60;99.90;;;;;;4985889;28;20527;-71
2023/01/12 11:40:27;;;;;;;38.05;5.65;;;11.70;99.90;;;;;;5005909;28;20069;-67
2023/01/12 11:45:51;;;;;;;35.30;4.38;;;11.60;99.90;;;;;;4990436;28;20572;-70
2023/01/12 11:48:26;;;;;;;42.47;5.45;;;11.70;99.90;;;;;;4989538;28;20060;-70
2023/01/12 11:50:53;;;;;;;36.95;4.60;;;11.60;99.90;;;;;;5008009;28;20346;-73
2023/01/12 11:53:24;;;;;;;35.28;4.93;;;11.50;99.90;;;;;;4983231;28;20109;-70
2023/01/12 11:56:17;;;;;;;33.85;4.78;;;11.60;99.90;;;;;;4988133;28;20505;-74
2023/01/12 11:58:59;;;;;;;38.42;6.10;;;11.50;99.90;;;;;;4987007;28;20104;-69
2023/01/12 12:01:42;;;;;;;38.63;4.88;;;11.40;99.90;;;;;;5007526;28;20412;-68
2023/01/12 12:04:19;;;;;;;37.00;4.55;;;11.20;99.90;;;;;;4992098;28;20050;-69
2023/01/12 12:06:45;;;;;;;42.33;5.60;;;11.10;99.90;;;;;;4987241;28;20104;-68
2023/01/12 12:09:21;;;;;;;38.63;5.43;;;11.10;99.90;;;;;;4982152;28;20488;-68
2023/01/12 12:12:02;;;;;;;45.05;5.95;;;11.20;99.90;;;;;;4984041;28;20103;-69
2023/01/12 12:14:46;;;;;;;35.85;5.20;;;11.20;99.90;;;;;;4989476;28;20079;-68
2023/01/12 12:17:18;;;;;;;30.40;4.28;;;11.10;99.90;;;;;;4990058;28;20030;-73
2023/01/12 12:20:05;;;;;;;38.90;4.80;;;11.30;99.90;;;;;;4988952;28;20045;-70
2023/01/12 12:22:45;;;;;;;52.03;5.70;;;11.40;99.90;;;;;;5001040;28;20459;-68
2023/01/12 12:25:38;;;;;;;30.95;4.43;;;11.40;99.90;;;;;;5006247;28;20042;-74
2023/01/12 12:28:09;;;;;;;;;;;11.50;99.90;;;;;;4989325;28;20030;-73
2023/01/12 12:30:53;;;;;;;28.10;4.25;;;11.50;99.90;;;;;;5007122;28;19929;-70
2023/01/12 12:33:31;;;;;;;38.10;5.40;;;11.50;99.90;;;;;;4993065;28;20099;-71
2023/01/12 12:36:11;;;;;;;29.45;4.65;;;11.60;99.90;;;;;;4989236;28;20038;-71
2023/01/12 12:39:09;;;;;;;43.30;4.82;;;11.60;99.90;;;;;;4987373;28;20087;-71
2023/01/12 12:45:24;;;;;;;36.00;4.28;;;11.70;99.90;;;;;;4966444;28;20108;-71
2023/01/12 12:47:59;;;;;;;35.17;4.88;;;11.70;99.90;;;;;;4989706;28;20046;-74
2023/01/12 12:50:38;;;;;;;30.52;5.07;;;11.70;99.90;;;;;;4990199;28;20056;-73
2023/01/12 12:53:27;;;;;;;28.55;4.65;;;11.70;99.90;;;;;;4990199;28;21607;-68
2023/01/12 12:55:57;;;;;;;33.78;5.68;;;11.80;99.90;;;;;;4990916;28;20038;-71
2023/01/12 12:58:25;;;;;;;35.17;4.85;;;11.70;99.90;;;;;;4990043;28;20064;-72
2023/01/12 13:00:53;;;;;;;31.48;5.40;;;11.70;99.90;;;;;;4974638;28;20124;-68
2023/01/12 13:03:40;;;;;;;36.00;4.65;;;11.80;99.90;;;;;;4990952;28;20038;-70
2023/01/12 13:06:40;;;;;;;34.67;4.85;;;11.60;99.90;;;;;;5006381;28;20033;-70
2023/01/12 13:09:12;;;;;;;36.90;4.97;;;11.70;99.90;;;;;;4972606;28;20129;-70
2023/01/12 13:12:08;;;;;;;32.33;4.70;;;11.50;99.90;;;;;;4989697;28;20404;-70
2023/01/12 13:14:35;;;;;;;31.33;4.72;;;11.50;99.90;;;;;;4987536;28;20068;-67
2023/01/12 13:17:19;;;;;;;32.78;4.53;;;11.50;99.90;;;;;;4989541;28;20045;-68
2023/01/12 13:20:10;;;;;;;32.78;5.28;;;11.50;99.90;;;;;;4991027;28;20045;-71
2023/01/12 13:22:43;;;;;;;26.02;3.97;;;11.50;99.90;;;;;;4971636;28;20041;-69
2023/01/12 13:25:08;;;;;;;22.65;3.95;;;11.30;99.90;;;;;;4990002;28;20084;-69
2023/01/12 13:27:48;;;;;;;33.05;4.07;;;11.20;99.90;;;;;;4976753;28;20141;-73
2023/01/12 13:30:34;;;;;;;28.02;3.40;;;11.30;99.90;;;;;;4986970;28;20046;-66
2023/01/12 13:33:11;;;;;;;21.05;3.42;;;11.10;99.90;;;;;;4989724;28;20515;-72
2023/01/12 13:35:39;;;;;;;25.77;3.67;;;11.10;99.90;;;;;;4988243;28;20042;-67
2023/01/12 13:38:32;;;;;;;27.30;3.97;;;11.10;99.90;;;;;;5004946;28;20727;-70
2023/01/12 13:43:13;;;;;;;29.25;4.22;;;11.00;99.90;;;;;;4969975;28;20048;-73
2023/01/12 13:44:02;;;;;;;29.38;4.97;;;11.00;99.90;;;;;;4984604;28;20069;-70
2023/01/12 13:46:52;;;;;;;35.22;5.28;;;11.00;99.90;;;;;;4987959;28;20140;-71
2023/01/12 13:49:32;;;;;;;29.60;4.70;;;11.10;99.90;;;;;;4990376;28;20026;-69
2023/01/12 13:52:17;;;;;;;23.90;3.88;;;11.10;99.90;;;;;;4988459;28;20034;-69